Grand Forks Air Force Base Grand Forks US
ICAO: KRDR
IATA: RDR
Category: Medium
Scheduled Services: No

Elevation: 913 ft
TransAlt. 18000 ft.

Airport Communications:
APP/DEP:118.1
ATIS:27.345
CLNC DEL:119.15
GND:119.15
PMSV METRO:34.35
COMD POST:31.1
PTD:37.22
RDO:122.2
RED RIVER TWR:124.9

KRDR Zoom In..

Runways:

(A) RW 17 length 12351 ft width 150 ft
ILS 111.30 / hdg 174

(B) RW 35 length 12351 ft width 150 ft
ILS 109.90 / hdg 354

Location; KRDR
Day. 08 / Time. 04.56 Zulu
* Altimeter: 29.71
* Temperature: 00° c. 32°f.
* Wind from: 030° Speed 06 kn.
Dewpoint: 00° c.
Visibility: 10 Statute Miles.
Clouds: Clear (automated report).

KRDR 080456Z AUTO 03006KT 10SM CLR 00/00 A2971 RMK AO2 SLP074 T00040003 $


Wind From 030°
Speed 06 kn.

 
 
jpsmedia worldairports.se 2020   terms of use